createdAt,value
2017-11-13T00:00:08.668Z,6.93
2017-11-13T00:00:49.261Z,6.87
2017-11-13T00:01:29.842Z,6.89
2017-11-13T00:02:10.418Z,6.82
2017-11-13T00:02:51.040Z,6.92
2017-11-13T00:03:31.625Z,6.88
2017-11-13T00:04:12.189Z,6.87
2017-11-13T00:04:52.755Z,6.93
2017-11-13T00:05:33.329Z,6.96
2017-11-13T00:06:13.934Z,6.93
2017-11-13T00:06:54.512Z,6.88
2017-11-13T00:07:35.092Z,6.97
2017-11-13T00:08:15.656Z,6.97
2017-11-13T00:08:56.240Z,6.95
2017-11-13T00:09:36.832Z,7
2017-11-13T00:10:17.427Z,6.97
2017-11-13T00:10:58.023Z,6.89
2017-11-13T00:11:38.600Z,6.97
2017-11-13T00:12:19.197Z,6.95
2017-11-13T00:12:59.763Z,6.87
2017-11-13T00:13:40.404Z,6.89
2017-11-13T00:14:21.007Z,6.85
2017-11-13T00:15:01.606Z,6.87
2017-11-13T00:15:42.193Z,6.87
2017-11-13T00:16:22.776Z,6.84
2017-11-13T00:17:03.340Z,6.93
2017-11-13T00:17:43.902Z,6.82
2017-11-13T00:18:24.478Z,6.82
2017-11-13T00:19:05.040Z,6.92
2017-11-13T00:19:45.619Z,6.84
2017-11-13T00:20:26.223Z,6.82
2017-11-13T00:21:06.823Z,6.84
2017-11-13T00:21:47.391Z,6.82
2017-11-13T00:22:27.968Z,6.88
2017-11-13T00:23:08.530Z,6.89
2017-11-13T00:23:49.124Z,6.84
2017-11-13T00:24:29.712Z,6.87
2017-11-13T00:25:10.343Z,6.85
2017-11-13T00:25:50.921Z,6.88
2017-11-13T00:26:31.521Z,6.89
2017-11-13T00:27:12.108Z,6.85
2017-11-13T00:27:52.697Z,6.82
2017-11-13T00:28:33.316Z,6.89
2017-11-13T00:29:13.901Z,6.85
2017-11-13T00:29:54.515Z,6.82
2017-11-13T00:30:35.070Z,6.84
2017-11-13T00:31:15.666Z,6.89
2017-11-13T00:31:56.268Z,6.95
2017-11-13T00:32:36.836Z,6.85
2017-11-13T00:33:17.426Z,6.93
2017-11-13T00:33:58.016Z,6.88
2017-11-13T00:34:38.651Z,6.82
2017-11-13T00:35:19.239Z,6.93
2017-11-13T00:35:59.849Z,6.81
2017-11-13T00:36:40.405Z,6.87
2017-11-13T00:37:21.076Z,6.88
2017-11-13T00:38:01.654Z,6.93
2017-11-13T00:38:42.243Z,6.82
2017-11-13T00:39:22.811Z,6.87
2017-11-13T00:40:03.406Z,6.99
2017-11-13T00:40:43.980Z,6.85
2017-11-13T00:41:24.574Z,6.85
2017-11-13T00:42:05.135Z,6.87
2017-11-13T00:42:45.700Z,6.88
2017-11-13T00:43:26.264Z,6.87
2017-11-13T00:44:06.850Z,6.88
2017-11-13T00:44:47.427Z,6.81
2017-11-13T00:45:28.052Z,6.85
2017-11-13T00:46:08.627Z,6.92
2017-11-13T00:46:49.186Z,6.79
2017-11-13T00:47:29.765Z,6.85
2017-11-13T00:48:10.337Z,6.75
2017-11-13T00:48:50.895Z,6.88
2017-11-13T00:49:31.468Z,6.77
2017-11-13T00:50:12.026Z,6.87
2017-11-13T00:50:52.599Z,6.88
2017-11-13T00:51:33.166Z,6.79
2017-11-13T00:52:13.729Z,6.85
2017-11-13T00:52:54.298Z,6.79
2017-11-13T00:53:34.894Z,6.87
2017-11-13T00:54:15.459Z,6.81
2017-11-13T00:54:56.050Z,6.85
2017-11-13T00:55:36.633Z,6.88
2017-11-13T00:56:17.225Z,6.84
2017-11-13T00:56:57.834Z,6.87
2017-11-13T00:57:38.442Z,6.88
2017-11-13T00:58:19.049Z,6.87
2017-11-13T00:58:59.642Z,6.88
2017-11-13T00:59:40.245Z,6.87
2017-11-13T01:00:20.835Z,6.87
2017-11-13T01:01:01.416Z,6.88
2017-11-13T01:01:41.987Z,6.84
2017-11-13T01:02:22.590Z,6.79
2017-11-13T01:03:03.268Z,6.82
2017-11-13T01:03:43.764Z,6.79
2017-11-13T01:04:24.351Z,6.72
2017-11-13T01:05:04.920Z,6.75
2017-11-13T01:05:45.516Z,6.7
2017-11-13T01:06:26.100Z,6.67
2017-11-13T01:07:06.674Z,6.72
2017-11-13T01:07:47.237Z,6.74
2017-11-13T01:08:27.816Z,6.77
2017-11-13T01:09:08.386Z,6.78
2017-11-13T01:09:48.962Z,6.7
2017-11-13T01:10:29.598Z,6.64
2017-11-13T01:11:10.145Z,6.69
2017-11-13T01:11:50.746Z,6.7
2017-11-13T01:12:31.308Z,6.72
2017-11-13T01:13:11.869Z,6.72
2017-11-13T01:13:52.420Z,6.67
2017-11-13T01:14:32.988Z,6.62
2017-11-13T01:15:13.570Z,6.66
2017-11-13T01:15:54.145Z,6.62
2017-11-13T01:16:34.727Z,6.57
2017-11-13T01:17:15.317Z,6.6
2017-11-13T01:17:55.888Z,6.6
2017-11-13T01:18:36.485Z,6.59
2017-11-13T01:19:17.057Z,6.62
2017-11-13T01:19:57.627Z,6.63
2017-11-13T01:20:38.204Z,6.6
2017-11-13T01:21:18.780Z,6.6
2017-11-13T01:21:59.369Z,6.45
2017-11-13T01:22:39.945Z,6.45
2017-11-13T01:23:20.518Z,6.49
2017-11-13T01:24:01.100Z,6.57
2017-11-13T01:24:41.672Z,6.46
2017-11-13T01:25:22.225Z,6.48
2017-11-13T01:26:02.803Z,6.49
2017-11-13T01:26:43.366Z,6.48
2017-11-13T01:27:23.983Z,6.46
2017-11-13T01:28:04.527Z,6.48
2017-11-13T01:28:45.106Z,6.52
2017-11-13T01:29:25.697Z,6.51
2017-11-13T01:30:06.261Z,6.51
2017-11-13T01:30:46.825Z,6.48
2017-11-13T01:31:27.386Z,6.52
2017-11-13T01:32:07.967Z,6.49
2017-11-13T01:32:48.552Z,6.42
2017-11-13T01:33:29.114Z,6.49
2017-11-13T01:34:09.686Z,6.46
2017-11-13T01:34:50.274Z,6.44
2017-11-13T01:35:30.855Z,6.45
2017-11-13T01:36:11.436Z,6.42
2017-11-13T01:36:52.006Z,6.44
2017-11-13T01:37:32.571Z,6.48
2017-11-13T01:38:13.143Z,6.45
2017-11-13T01:38:53.713Z,6.49
2017-11-13T01:39:34.289Z,6.44
2017-11-13T01:40:14.853Z,6.46
2017-11-13T01:40:55.413Z,6.48
2017-11-13T01:41:36.033Z,6.41
2017-11-13T01:42:16.617Z,6.44
2017-11-13T01:42:57.191Z,6.45
2017-11-13T01:43:37.787Z,6.49
2017-11-13T01:44:18.361Z,6.49
2017-11-13T01:44:58.936Z,6.44
2017-11-13T01:45:39.561Z,6.44
2017-11-13T01:46:20.137Z,6.46
2017-11-13T01:47:00.696Z,6.45
2017-11-13T01:47:41.276Z,6.51
2017-11-13T01:48:21.846Z,6.49
2017-11-13T01:49:02.421Z,6.42
2017-11-13T01:49:46.021Z,6.46
2017-11-13T01:50:26.637Z,6.45
2017-11-13T01:51:07.182Z,6.44
2017-11-13T01:51:47.758Z,6.48
2017-11-13T01:52:28.356Z,6.42
2017-11-13T01:53:08.929Z,6.49
2017-11-13T01:53:49.544Z,6.44
2017-11-13T01:54:30.132Z,6.48
2017-11-13T01:55:10.695Z,6.49
2017-11-13T01:55:51.264Z,6.45
2017-11-13T01:56:31.864Z,6.45
2017-11-13T01:57:12.426Z,6.39
2017-11-13T01:57:53.009Z,6.35
2017-11-13T01:58:33.604Z,6.45
2017-11-13T01:59:14.205Z,6.39
2017-11-13T01:59:54.780Z,6.38
2017-11-13T02:00:35.349Z,6.36
2017-11-13T02:01:15.963Z,6.39
2017-11-13T02:01:56.494Z,6.41
2017-11-13T02:02:37.058Z,6.45
2017-11-13T02:03:17.609Z,6.46
2017-11-13T02:03:58.174Z,6.36
2017-11-13T02:04:38.767Z,6.41
2017-11-13T02:05:19.334Z,6.33
2017-11-13T02:05:59.888Z,6.28
2017-11-13T02:06:40.456Z,6.28
2017-11-13T02:07:21.005Z,6.36
2017-11-13T02:08:01.577Z,6.35
2017-11-13T02:08:42.194Z,6.28
2017-11-13T02:09:22.757Z,6.33
2017-11-13T02:10:03.332Z,6.28
2017-11-13T02:10:43.900Z,6.3
2017-11-13T02:11:24.465Z,6.27
2017-11-13T02:12:05.024Z,6.33
2017-11-13T02:12:45.580Z,6.36
2017-11-13T02:13:26.156Z,6.31
2017-11-13T02:14:06.743Z,6.35
2017-11-13T02:14:47.314Z,6.3
2017-11-13T02:15:27.873Z,6.33
2017-11-13T02:16:08.440Z,6.41
2017-11-13T02:16:49.001Z,6.36
2017-11-13T02:17:29.563Z,6.35
2017-11-13T02:18:10.143Z,6.35
2017-11-13T02:18:50.711Z,6.31
2017-11-13T02:19:31.283Z,6.39
2017-11-13T02:20:11.855Z,6.28
2017-11-13T02:20:52.436Z,6.38
2017-11-13T02:21:32.994Z,6.35
2017-11-13T02:22:13.572Z,6.3
2017-11-13T02:22:54.139Z,6.35
2017-11-13T02:23:34.729Z,6.38
2017-11-13T02:24:15.341Z,6.35
2017-11-13T02:24:55.890Z,6.39
2017-11-13T02:25:36.446Z,6.36
2017-11-13T02:26:17.020Z,6.38
2017-11-13T02:26:57.579Z,6.42
2017-11-13T02:27:38.145Z,6.39
2017-11-13T02:28:18.723Z,6.39
2017-11-13T02:28:59.336Z,6.38
2017-11-13T02:29:39.919Z,6.38
2017-11-13T02:30:20.500Z,6.33
2017-11-13T02:31:01.055Z,6.46
2017-11-13T02:31:41.630Z,6.42
2017-11-13T02:32:22.202Z,6.45
2017-11-13T02:33:02.808Z,6.31
2017-11-13T02:33:43.357Z,6.45
2017-11-13T02:34:23.940Z,6.36
2017-11-13T02:35:04.503Z,6.31
2017-11-13T02:35:45.064Z,6.46
2017-11-13T02:36:25.630Z,6.45
2017-11-13T02:37:06.192Z,6.44
2017-11-13T02:37:46.765Z,6.41
2017-11-13T02:38:27.335Z,6.48
2017-11-13T02:39:07.890Z,6.44
2017-11-13T02:39:48.461Z,6.45
2017-11-13T02:40:29.015Z,6.41
2017-11-13T02:41:09.590Z,6.45
2017-11-13T02:41:50.180Z,6.44
2017-11-13T02:42:30.743Z,6.46
2017-11-13T02:43:11.331Z,6.45
2017-11-13T02:43:51.899Z,6.45
2017-11-13T02:44:32.482Z,6.49
2017-11-13T02:45:13.037Z,6.46
2017-11-13T02:45:53.605Z,6.49
2017-11-13T02:46:34.217Z,6.51
2017-11-13T02:47:14.805Z,6.45
2017-11-13T02:47:55.379Z,6.48
2017-11-13T02:48:35.957Z,6.49
2017-11-13T02:49:16.507Z,6.42
2017-11-13T02:49:57.074Z,6.48
2017-11-13T02:50:37.684Z,6.44
2017-11-13T02:51:18.237Z,6.45
2017-11-13T02:51:58.794Z,6.45
2017-11-13T02:52:39.362Z,6.48
2017-11-13T02:53:19.937Z,6.48
2017-11-13T02:54:00.513Z,6.54
2017-11-13T02:54:41.086Z,6.45
2017-11-13T02:55:21.682Z,6.49
2017-11-13T02:56:02.217Z,6.51
2017-11-13T02:56:42.782Z,6.48
2017-11-13T02:57:23.338Z,6.52
2017-11-13T02:58:03.906Z,6.6
2017-11-13T02:58:44.471Z,6.49
2017-11-13T02:59:25.033Z,6.46
2017-11-13T03:00:05.606Z,6.56
2017-11-13T03:00:46.173Z,6.51
2017-11-13T03:01:26.744Z,6.49
2017-11-13T03:02:07.319Z,6.48
2017-11-13T03:02:47.897Z,6.46
2017-11-13T03:03:28.449Z,6.54
2017-11-13T03:04:09.057Z,6.51
2017-11-13T03:04:49.604Z,6.57
2017-11-13T03:05:30.167Z,6.48
2017-11-13T03:06:10.734Z,6.46
2017-11-13T03:06:51.304Z,6.42
2017-11-13T03:07:31.878Z,6.41
2017-11-13T03:08:12.437Z,6.46
2017-11-13T03:08:53.026Z,6.48
2017-11-13T03:09:33.642Z,6.44
2017-11-13T03:10:14.216Z,6.48
2017-11-13T03:10:54.776Z,6.49
2017-11-13T03:11:35.339Z,6.48
2017-11-13T03:12:15.926Z,6.54
2017-11-13T03:12:56.487Z,6.52
2017-11-13T03:13:37.117Z,6.46
2017-11-13T03:14:17.665Z,6.54
2017-11-13T03:14:58.234Z,6.49
2017-11-13T03:15:38.811Z,6.57
2017-11-13T03:16:19.392Z,6.57
2017-11-13T03:16:59.962Z,6.52
2017-11-13T03:17:40.536Z,6.59
2017-11-13T03:18:21.099Z,6.54
2017-11-13T03:19:01.668Z,6.6
2017-11-13T03:19:42.260Z,6.57
2017-11-13T03:20:22.822Z,6.63
2017-11-13T03:21:03.393Z,6.59
2017-11-13T03:21:43.965Z,6.57
2017-11-13T03:22:24.554Z,6.63
2017-11-13T03:23:05.139Z,6.63
2017-11-13T03:23:45.717Z,6.66
2017-11-13T03:24:26.299Z,6.64
2017-11-13T03:25:06.872Z,6.6
2017-11-13T03:25:47.441Z,6.6
2017-11-13T03:26:27.999Z,6.6
2017-11-13T03:27:08.575Z,6.7
2017-11-13T03:27:49.171Z,6.69
2017-11-13T03:28:29.748Z,6.59
2017-11-13T03:29:10.343Z,6.66
2017-11-13T03:29:50.937Z,6.67
2017-11-13T03:30:31.496Z,6.69
2017-11-13T03:31:12.090Z,6.7
2017-11-13T03:31:52.662Z,6.74
2017-11-13T03:32:33.225Z,6.6
2017-11-13T03:33:13.797Z,6.7
2017-11-13T03:33:54.365Z,6.72
2017-11-13T03:34:34.955Z,6.66
2017-11-13T03:35:15.525Z,6.7
2017-11-13T03:35:56.114Z,6.69
2017-11-13T03:36:36.673Z,6.64
2017-11-13T03:37:17.258Z,6.62
2017-11-13T03:37:57.831Z,6.69
2017-11-13T03:38:38.414Z,6.63
2017-11-13T03:39:18.986Z,6.6
2017-11-13T03:39:59.544Z,6.74
2017-11-13T03:40:40.101Z,6.64
2017-11-13T03:41:20.661Z,6.69
2017-11-13T03:42:01.232Z,6.67
2017-11-13T03:42:41.798Z,6.69
2017-11-13T03:43:22.375Z,6.67
2017-11-13T03:44:02.962Z,6.74
2017-11-13T03:44:43.535Z,6.7
2017-11-13T03:45:24.097Z,6.69
2017-11-13T03:46:04.649Z,6.72
2017-11-13T03:46:45.222Z,6.64
2017-11-13T03:47:25.780Z,6.69
2017-11-13T03:48:06.359Z,6.63
2017-11-13T03:48:46.899Z,6.66
2017-11-13T03:49:27.471Z,6.63
2017-11-13T03:50:08.044Z,6.72
2017-11-13T03:50:48.611Z,6.64
2017-11-13T03:51:29.195Z,6.67
2017-11-13T03:52:09.780Z,6.75
2017-11-13T03:52:50.349Z,6.7
2017-11-13T03:53:30.922Z,6.72
2017-11-13T03:54:11.496Z,6.77
2017-11-13T03:54:52.061Z,6.69
2017-11-13T03:55:32.632Z,6.67
2017-11-13T03:56:13.190Z,6.67
2017-11-13T03:56:53.754Z,6.56
2017-11-13T03:57:34.328Z,6.59
2017-11-13T03:58:14.890Z,6.59
2017-11-13T03:58:55.446Z,6.6
2017-11-13T03:59:36.032Z,6.66
2017-11-13T04:00:16.569Z,6.69
2017-11-13T04:00:57.135Z,6.72
2017-11-13T04:01:37.690Z,6.56
2017-11-13T04:02:18.251Z,6.7
2017-11-13T04:02:58.817Z,6.64
2017-11-13T04:03:39.432Z,6.56
2017-11-13T04:04:19.996Z,6.72
2017-11-13T04:05:00.565Z,6.6
2017-11-13T04:05:41.121Z,6.59
2017-11-13T04:06:21.700Z,6.69
2017-11-13T04:07:02.277Z,6.6
2017-11-13T04:07:42.847Z,6.7
2017-11-13T04:08:23.418Z,6.62
2017-11-13T04:09:03.983Z,6.66
2017-11-13T04:09:44.562Z,6.67
2017-11-13T04:10:25.172Z,6.69
2017-11-13T04:11:05.730Z,6.64
2017-11-13T04:11:46.314Z,6.7
2017-11-13T04:12:26.887Z,6.63
2017-11-13T04:13:07.464Z,6.63
2017-11-13T04:13:48.065Z,6.62
2017-11-13T04:14:28.634Z,6.7
2017-11-13T04:15:09.207Z,6.64
2017-11-13T04:15:49.789Z,6.6
2017-11-13T04:16:30.358Z,6.7
2017-11-13T04:17:10.940Z,6.63
2017-11-13T04:17:51.510Z,6.56
2017-11-13T04:18:32.090Z,6.7
2017-11-13T04:19:12.653Z,6.64
2017-11-13T04:19:53.232Z,6.6
2017-11-13T04:20:33.830Z,6.6
2017-11-13T04:21:14.404Z,6.66
2017-11-13T04:21:54.974Z,6.59
2017-11-13T04:22:35.557Z,6.6
2017-11-13T04:23:16.121Z,6.7
2017-11-13T04:23:56.692Z,6.62
2017-11-13T04:24:37.256Z,6.57
2017-11-13T04:25:17.835Z,6.7
2017-11-13T04:25:58.466Z,6.67
2017-11-13T04:26:39.030Z,6.63
2017-11-13T04:27:19.610Z,6.54
2017-11-13T04:28:00.176Z,6.54
2017-11-13T04:28:40.757Z,6.69
2017-11-13T04:29:21.344Z,6.63
2017-11-13T04:30:01.935Z,6.59
2017-11-13T04:30:42.507Z,6.59
2017-11-13T04:31:23.077Z,6.56
2017-11-13T04:32:03.654Z,6.56
2017-11-13T04:32:44.221Z,6.6
2017-11-13T04:33:24.801Z,6.63
2017-11-13T04:34:05.364Z,6.59
2017-11-13T04:34:45.942Z,6.48
2017-11-13T04:35:26.536Z,6.62
2017-11-13T04:36:07.114Z,6.52
2017-11-13T04:36:47.674Z,6.45
2017-11-13T04:37:28.246Z,6.51
2017-11-13T04:38:08.810Z,6.49
2017-11-13T04:38:49.392Z,6.48
2017-11-13T04:39:29.966Z,6.48
2017-11-13T04:40:10.570Z,6.51
2017-11-13T04:40:51.096Z,6.49
2017-11-13T04:41:31.760Z,6.44
2017-11-13T04:42:12.321Z,6.39
2017-11-13T04:42:52.889Z,6.46
2017-11-13T04:43:33.451Z,6.45
2017-11-13T04:44:14.027Z,6.44
2017-11-13T04:44:54.592Z,6.38
2017-11-13T04:45:35.160Z,6.42
2017-11-13T04:46:15.719Z,6.39
2017-11-13T04:46:56.305Z,6.42
2017-11-13T04:47:36.862Z,6.42
2017-11-13T04:48:17.435Z,6.41
2017-11-13T04:48:58.055Z,6.39
2017-11-13T04:49:38.640Z,6.33
2017-11-13T04:50:19.240Z,6.38
2017-11-13T04:50:59.802Z,6.33
2017-11-13T04:51:40.360Z,6.41
2017-11-13T04:52:20.919Z,6.42
2017-11-13T04:53:01.493Z,6.36
2017-11-13T04:53:42.058Z,6.3
2017-11-13T04:54:22.630Z,6.27
2017-11-13T04:55:03.234Z,6.3
2017-11-13T04:55:43.800Z,6.35
2017-11-13T04:56:24.400Z,6.28
2017-11-13T04:57:04.973Z,6.28
2017-11-13T04:57:45.543Z,6.24
2017-11-13T04:58:26.125Z,6.12
2017-11-13T04:59:06.699Z,6.2
2017-11-13T04:59:47.320Z,6.12
2017-11-13T05:00:27.905Z,6.14
2017-11-13T05:01:08.490Z,6.16
2017-11-13T05:01:49.070Z,6.19
2017-11-13T05:02:29.632Z,6.09
2017-11-13T05:03:10.209Z,6.16
2017-11-13T05:03:50.820Z,6.09
2017-11-13T05:04:31.406Z,6.09
2017-11-13T05:05:11.997Z,6.11
2017-11-13T05:05:52.576Z,6.14
2017-11-13T05:06:33.163Z,6.12
2017-11-13T05:07:13.747Z,6.09
2017-11-13T05:07:54.355Z,6.09
2017-11-13T05:08:34.946Z,6.09
2017-11-13T05:09:15.597Z,6.12
2017-11-13T05:09:56.166Z,6.16
2017-11-13T05:10:36.748Z,6.12
2017-11-13T05:11:17.323Z,6.08
2017-11-13T05:11:57.909Z,6.14
2017-11-13T05:12:38.472Z,6.11
2017-11-13T05:13:19.045Z,6.12
2017-11-13T05:13:59.655Z,6.11
2017-11-13T05:14:40.235Z,6.08
2017-11-13T05:15:20.830Z,6.17
2017-11-13T05:16:01.392Z,6.14
2017-11-13T05:16:41.957Z,6.19
2017-11-13T05:17:22.515Z,6.12
2017-11-13T05:18:03.100Z,6.11
2017-11-13T05:18:43.664Z,6.16
2017-11-13T05:19:24.236Z,6.14
2017-11-13T05:20:04.812Z,6.2
2017-11-13T05:20:45.383Z,6.16
2017-11-13T05:21:25.955Z,6.12
2017-11-13T05:22:06.610Z,6.16
2017-11-13T05:22:47.174Z,6.22
2017-11-13T05:23:27.753Z,6.26
2017-11-13T05:24:08.314Z,6.24
2017-11-13T05:24:48.905Z,6.14
2017-11-13T05:25:29.455Z,6.26
2017-11-13T05:26:10.022Z,6.24
2017-11-13T05:26:50.584Z,6.24
2017-11-13T05:27:31.152Z,6.19
2017-11-13T05:28:11.737Z,6.2
2017-11-13T05:28:52.291Z,6.19
2017-11-13T05:29:32.875Z,6.16
2017-11-13T05:30:13.452Z,6.22
2017-11-13T05:30:54.022Z,6.2
2017-11-13T05:31:34.582Z,6.12
2017-11-13T05:32:15.152Z,6.2
2017-11-13T05:32:55.716Z,6.24
2017-11-13T05:33:36.294Z,6.28
2017-11-13T05:34:16.852Z,6.26
2017-11-13T05:34:57.413Z,6.19
2017-11-13T05:35:37.987Z,6.16
2017-11-13T05:36:18.550Z,6.24
2017-11-13T05:36:59.120Z,6.16
2017-11-13T05:37:39.684Z,6.22
2017-11-13T05:38:20.269Z,6.22
2017-11-13T05:39:00.834Z,6.2
2017-11-13T05:39:41.400Z,6.24
2017-11-13T05:40:21.995Z,6.28
2017-11-13T05:41:02.621Z,6.3
2017-11-13T05:41:43.179Z,6.31
2017-11-13T05:42:23.750Z,6.22
2017-11-13T05:43:04.324Z,6.3
2017-11-13T05:43:44.878Z,6.26
2017-11-13T05:44:25.456Z,6.22
2017-11-13T05:45:06.040Z,6.28
2017-11-13T05:45:46.600Z,6.3
2017-11-13T05:46:27.366Z,6.3
2017-11-13T05:47:07.917Z,6.3
2017-11-13T05:47:48.491Z,6.33
2017-11-13T05:48:29.051Z,6.24
2017-11-13T05:49:09.623Z,6.28
2017-11-13T05:49:50.200Z,6.31
2017-11-13T05:50:30.785Z,6.28
2017-11-13T05:51:11.370Z,6.28
2017-11-13T05:51:51.932Z,6.28
2017-11-13T05:52:32.505Z,6.26
2017-11-13T05:53:13.061Z,6.31
2017-11-13T05:53:53.652Z,6.35
2017-11-13T05:54:34.222Z,6.28
2017-11-13T05:55:14.836Z,6.26
2017-11-13T05:55:55.399Z,6.26
2017-11-13T05:56:35.979Z,6.3
2017-11-13T05:57:16.571Z,6.26
2017-11-13T05:57:57.170Z,6.28
2017-11-13T05:58:37.774Z,6.28
2017-11-13T05:59:18.352Z,6.3
2017-11-13T05:59:58.916Z,6.28
2017-11-13T06:00:39.492Z,6.36
2017-11-13T06:01:20.092Z,6.26
2017-11-13T06:02:00.640Z,6.26
2017-11-13T06:02:41.215Z,6.3
2017-11-13T06:03:21.807Z,6.31
2017-11-13T06:04:02.380Z,6.26
2017-11-13T06:04:42.963Z,6.27
2017-11-13T06:05:23.529Z,6.28
2017-11-13T06:06:04.096Z,6.33
2017-11-13T06:06:44.673Z,6.28
2017-11-13T06:07:25.234Z,6.3
2017-11-13T06:08:05.817Z,6.27
2017-11-13T06:08:46.417Z,6.31
2017-11-13T06:09:26.983Z,6.28
2017-11-13T06:10:07.546Z,6.3
2017-11-13T06:10:48.108Z,6.38
2017-11-13T06:11:28.674Z,6.41
2017-11-13T06:12:09.247Z,6.33
2017-11-13T06:12:49.812Z,6.39
2017-11-13T06:13:30.376Z,6.36
2017-11-13T06:14:10.942Z,6.38
2017-11-13T06:14:51.527Z,6.33
2017-11-13T06:15:32.114Z,6.42
2017-11-13T06:16:12.704Z,6.45
2017-11-13T06:16:53.280Z,6.38
2017-11-13T06:17:33.914Z,6.35
2017-11-13T06:18:14.497Z,6.48
2017-11-13T06:18:55.078Z,6.44
2017-11-13T06:19:35.657Z,6.44
2017-11-13T06:20:16.232Z,6.48
2017-11-13T06:20:56.803Z,6.69
2017-11-13T06:21:37.413Z,6.84
2017-11-13T06:22:17.974Z,7.15
2017-11-13T06:22:58.550Z,7.32
2017-11-13T06:23:39.110Z,7.56
2017-11-13T06:24:19.681Z,7.88
2017-11-13T06:25:00.277Z,8.01
2017-11-13T06:25:40.854Z,8.2
2017-11-13T06:26:21.437Z,8.31
2017-11-13T06:27:02.238Z,8.51
2017-11-13T06:27:42.793Z,8.67
2017-11-13T06:28:23.359Z,8.71
2017-11-13T06:29:03.973Z,8.88
2017-11-13T06:29:44.546Z,9.08
2017-11-13T06:30:25.123Z,9.14
2017-11-13T06:31:05.835Z,9.28
2017-11-13T06:31:46.502Z,9.28
2017-11-13T06:32:28.230Z,9.31
2017-11-13T06:33:08.814Z,9.23
2017-11-13T06:33:49.386Z,9.08
2017-11-13T06:34:29.957Z,8.95
2017-11-13T06:35:10.620Z,8.91
2017-11-13T06:35:51.193Z,8.81
2017-11-13T06:36:31.754Z,8.64
2017-11-13T06:37:12.356Z,8.53
2017-11-13T06:37:52.923Z,8.45
2017-11-13T06:38:33.500Z,8.41
2017-11-13T06:39:14.082Z,8.28
2017-11-13T06:39:54.677Z,8.2
2017-11-13T06:40:35.262Z,8.08
2017-11-13T06:41:15.849Z,8.01
2017-11-13T06:41:56.428Z,7.94
2017-11-13T06:42:37.000Z,7.8
2017-11-13T06:43:17.566Z,7.79
2017-11-13T06:43:58.136Z,7.91
2017-11-13T06:44:38.708Z,7.73
2017-11-13T06:45:19.283Z,7.69
2017-11-13T06:45:59.862Z,7.61
2017-11-13T06:46:40.464Z,7.56
2017-11-13T06:47:20.999Z,7.5
2017-11-13T06:48:01.587Z,7.57
2017-11-13T06:48:42.598Z,7.39
2017-11-13T06:49:23.185Z,7.39
2017-11-13T06:50:03.779Z,7.43
2017-11-13T06:50:44.389Z,7.42
2017-11-13T06:51:25.119Z,7.42
2017-11-13T06:52:05.726Z,7.31
2017-11-13T06:52:46.282Z,7.33
2017-11-13T06:53:26.845Z,7.21
2017-11-13T06:54:07.407Z,7.28
2017-11-13T06:54:48.001Z,7.29
2017-11-13T06:55:28.585Z,7.33
2017-11-13T06:56:09.218Z,7.32
2017-11-13T06:56:49.837Z,7.24
2017-11-13T06:57:30.412Z,7.18
2017-11-13T06:58:10.998Z,7.21
2017-11-13T06:58:51.578Z,7.2
2017-11-13T06:59:32.163Z,7.21
2017-11-13T07:00:12.725Z,7.15
2017-11-13T07:00:53.286Z,7.17
2017-11-13T07:01:33.840Z,7.23
2017-11-13T07:02:14.443Z,7.28
2017-11-13T07:02:55.037Z,7.18
2017-11-13T07:03:35.604Z,7.15
2017-11-13T07:04:16.249Z,7.14
2017-11-13T07:04:56.820Z,7.1
2017-11-13T07:05:38.192Z,7.06
2017-11-13T07:06:18.797Z,7.06
2017-11-13T07:06:59.380Z,7.02
2017-11-13T07:07:39.971Z,7.05
2017-11-13T07:08:20.571Z,7.07
2017-11-13T07:09:01.180Z,7.11
2017-11-13T07:09:41.753Z,7.1
2017-11-13T07:10:22.322Z,7.05
2017-11-13T07:11:02.873Z,7.03
2017-11-13T07:11:43.446Z,6.99
2017-11-13T07:12:24.005Z,7
2017-11-13T07:13:04.572Z,7
2017-11-13T07:13:45.140Z,6.97
2017-11-13T07:14:25.713Z,6.89
2017-11-13T07:15:06.296Z,6.85
2017-11-13T07:15:46.868Z,6.85
2017-11-13T07:16:27.487Z,6.82
2017-11-13T07:17:08.054Z,6.93
2017-11-13T07:17:48.628Z,6.92
2017-11-13T07:18:29.206Z,6.93
2017-11-13T07:19:09.763Z,6.92
2017-11-13T07:19:50.324Z,6.89
2017-11-13T07:20:30.997Z,6.93
2017-11-13T07:21:11.596Z,6.92
2017-11-13T07:21:52.188Z,6.97
2017-11-13T07:22:32.743Z,7.02
2017-11-13T07:23:13.318Z,6.92
2017-11-13T07:23:53.882Z,6.87
2017-11-13T07:24:34.454Z,6.89
2017-11-13T07:25:15.025Z,6.95
2017-11-13T07:25:55.585Z,6.92
2017-11-13T07:26:36.348Z,6.95
2017-11-13T07:27:16.942Z,6.92
2017-11-13T07:27:57.555Z,6.85
2017-11-13T07:28:38.203Z,6.88
2017-11-13T07:29:18.760Z,6.85
2017-11-13T07:29:59.334Z,6.88
2017-11-13T07:30:39.907Z,6.75
2017-11-13T07:31:20.505Z,6.78
2017-11-13T07:32:01.063Z,6.74
2017-11-13T07:32:41.632Z,6.7
2017-11-13T07:33:22.206Z,6.74
2017-11-13T07:34:02.784Z,6.69
2017-11-13T07:34:43.346Z,6.81
2017-11-13T07:35:23.935Z,6.82
2017-11-13T07:36:04.500Z,6.74
2017-11-13T07:36:45.081Z,6.78
2017-11-13T07:37:25.683Z,6.77
2017-11-13T07:38:06.294Z,6.87
2017-11-13T07:38:46.857Z,6.88
2017-11-13T07:39:27.489Z,6.81
2017-11-13T07:40:08.064Z,6.78
2017-11-13T07:40:48.644Z,6.81
2017-11-13T07:41:29.916Z,6.82
2017-11-13T07:42:10.454Z,6.84
2017-11-13T07:42:51.038Z,6.78
2017-11-13T07:43:31.631Z,6.78
2017-11-13T07:44:12.209Z,6.78
2017-11-13T07:44:52.794Z,6.78
2017-11-13T07:45:33.354Z,6.75
2017-11-13T07:46:13.926Z,6.88
2017-11-13T07:46:54.527Z,6.82
2017-11-13T07:47:35.098Z,6.89
2017-11-13T07:48:17.496Z,6.87
2017-11-13T07:48:59.312Z,6.87
2017-11-13T07:49:39.907Z,6.87
2017-11-13T07:50:20.519Z,6.88
2017-11-13T07:51:01.254Z,6.95
2017-11-13T07:51:41.809Z,6.92
2017-11-13T07:52:22.394Z,7.07
2017-11-13T07:53:03.049Z,6.96
2017-11-13T07:53:43.648Z,6.95
2017-11-13T07:54:24.224Z,6.95
2017-11-13T07:55:04.797Z,6.95
2017-11-13T07:55:45.367Z,6.97
2017-11-13T07:56:25.936Z,6.97
2017-11-13T07:57:06.515Z,6.96
2017-11-13T07:57:47.085Z,6.96
2017-11-13T07:58:27.664Z,7.02
2017-11-13T07:59:08.251Z,6.93
2017-11-13T07:59:48.840Z,6.82
2017-11-13T08:00:29.409Z,6.84
2017-11-13T08:01:09.975Z,6.85
2017-11-13T08:01:50.556Z,6.88
2017-11-13T08:02:31.140Z,6.89
2017-11-13T08:03:11.713Z,6.81
2017-11-13T08:03:52.300Z,6.78
2017-11-13T08:04:32.857Z,6.77
2017-11-13T08:05:13.423Z,6.77
2017-11-13T08:05:53.996Z,6.7
2017-11-13T08:06:34.602Z,6.7
2017-11-13T08:07:15.166Z,6.75
2017-11-13T08:07:55.727Z,6.77
2017-11-13T08:08:36.315Z,6.69
2017-11-13T08:09:16.929Z,6.75
2017-11-13T08:09:57.509Z,6.72
2017-11-13T08:10:38.131Z,6.78
2017-11-13T08:11:18.694Z,6.59
2017-11-13T08:11:59.259Z,6.63
2017-11-13T08:12:39.818Z,6.6
2017-11-13T08:13:20.371Z,6.56
2017-11-13T08:14:00.942Z,6.56
2017-11-13T08:14:41.512Z,6.57
2017-11-13T08:15:22.087Z,6.52
2017-11-13T08:16:02.726Z,6.62
2017-11-13T08:16:43.287Z,6.48
2017-11-13T08:17:23.866Z,6.52
2017-11-13T08:18:04.449Z,6.48
2017-11-13T08:18:45.019Z,6.51
2017-11-13T08:19:25.610Z,6.51
2017-11-13T08:20:06.180Z,6.44
2017-11-13T08:20:46.725Z,6.56
2017-11-13T08:21:27.305Z,6.56
2017-11-13T08:22:07.872Z,6.6
2017-11-13T08:22:48.435Z,6.67
2017-11-13T08:23:28.999Z,6.62
2017-11-13T08:24:09.566Z,6.64
2017-11-13T08:24:50.161Z,6.6
2017-11-13T08:25:30.750Z,6.6
2017-11-13T08:26:11.310Z,6.62
2017-11-13T08:26:51.870Z,6.56
2017-11-13T08:27:32.442Z,6.66
2017-11-13T08:28:13.051Z,6.69
2017-11-13T08:28:53.614Z,6.6
2017-11-13T08:29:34.188Z,6.74
2017-11-13T08:30:14.751Z,6.66
2017-11-13T08:30:55.337Z,6.57
2017-11-13T08:31:35.915Z,6.51
2017-11-13T08:32:16.572Z,6.52
2017-11-13T08:32:57.148Z,6.45
2017-11-13T08:33:37.740Z,6.45
2017-11-13T08:34:18.316Z,6.42
2017-11-13T08:34:58.896Z,6.42
2017-11-13T08:35:39.464Z,6.49
2017-11-13T08:36:20.053Z,6.41
2017-11-13T08:37:00.633Z,6.41
2017-11-13T08:37:41.215Z,6.39
2017-11-13T08:38:21.778Z,6.45
2017-11-13T08:39:02.365Z,6.31
2017-11-13T08:39:42.999Z,6.22
2017-11-13T08:40:23.582Z,6.28
2017-11-13T08:41:04.159Z,6.26
2017-11-13T08:41:44.790Z,6.27
2017-11-13T08:42:25.302Z,6.3
2017-11-13T08:43:05.892Z,6.31
2017-11-13T08:43:46.493Z,6.28
2017-11-13T08:44:27.085Z,6.19
2017-11-13T08:45:07.944Z,6.16
2017-11-13T08:45:48.412Z,6.26
2017-11-13T08:46:28.960Z,6.28
2017-11-13T08:47:09.641Z,6.22
2017-11-13T08:47:50.277Z,6.19
2017-11-13T08:48:30.871Z,6.2
2017-11-13T08:49:11.449Z,6.16
2017-11-13T08:49:52.016Z,6.27
2017-11-13T08:50:32.604Z,6.31
2017-11-13T08:51:13.170Z,6.22
2017-11-13T08:51:53.750Z,6.33
2017-11-13T08:52:34.306Z,6.31
2017-11-13T08:53:14.887Z,6.26
2017-11-13T08:53:55.479Z,6.22
2017-11-13T08:54:36.042Z,6.26
2017-11-13T08:55:16.665Z,6.28
2017-11-13T08:55:57.214Z,6.28
2017-11-13T08:56:37.809Z,6.28
2017-11-13T08:57:18.378Z,6.44
2017-11-13T08:57:58.950Z,6.48
2017-11-13T08:58:39.571Z,6.39
2017-11-13T08:59:20.156Z,6.48
2017-11-13T09:00:00.715Z,6.46
2017-11-13T09:00:41.327Z,6.48
2017-11-13T09:01:21.881Z,6.48
2017-11-13T09:02:02.457Z,6.48